Terminal Aerodrome Forecast
Issued by NWS

Home | Current Version | Previous Version | Text Only | Print | Product List | Glossary On
Versions: 1 2 3 4 5 6 7 8 9 10 11 12 13 14 15 16 17
000
FTUS44 KMAF 171100
TAFINK
TAF
KINK 171120Z 1712/1812 01012G18KT P6SM FEW250
     FM171800 02011KT P6SM FEW250
     FM180000 06011KT P6SM FEW250
     FM180800 09009KT P6SM SCT010
      TEMPO 1809/1812 BKN010=

USA.gov is the U.S. government's official web portal to all federal, state and local government web resources and services.